sensor_id;sensor_type;location;lat;lon;timestamp;pressure;altitude;pressure_sealevel;temperature;humidity
69405;BME280;57084;52.046;5.632;2023-01-26T00:00:00;102450;;;2.1;70.2
69405;BME280;57084;52.046;5.632;2023-01-26T00:01:00;102450;;;2.1;70.2
69405;BME280;57084;52.046;5.632;2023-01-26T00:02:00;102450;;;2.1;70.3
69405;BME280;57084;52.046;5.632;2023-01-26T00:03:00;102450;;;2.1;70.3
69405;BME280;57084;52.046;5.632;2023-01-26T00:04:00;102450;;;2.1;70.3
69405;BME280;57084;52.046;5.632;2023-01-26T00:05:00;102450;;;2.1;70.3
69405;BME280;57084;52.046;5.632;2023-01-26T00:06:01;102450;;;2.1;70.3
69405;BME280;57084;52.046;5.632;2023-01-26T00:07:00;102450;;;2.1;70.3
69405;BME280;57084;52.046;5.632;2023-01-26T00:08:00;102450;;;2.1;70.3
69405;BME280;57084;52.046;5.632;2023-01-26T00:09:00;102450;;;2.1;70.3
69405;BME280;57084;52.046;5.632;2023-01-26T00:10:00;102440;;;2.1;70.2
69405;BME280;57084;52.046;5.632;2023-01-26T00:11:01;102440;;;2.1;70.2
69405;BME280;57084;52.046;5.632;2023-01-26T00:12:00;102440;;;2.2;70.3
69405;BME280;57084;52.046;5.632;2023-01-26T00:13:00;102440;;;2.2;70.3
69405;BME280;57084;52.046;5.632;2023-01-26T00:14:00;102440;;;2.2;70.3
69405;BME280;57084;52.046;5.632;2023-01-26T00:15:00;102440;;;2.2;70.3
69405;BME280;57084;52.046;5.632;2023-01-26T00:16:00;102440;;;2.2;70.2
69405;BME280;57084;52.046;5.632;2023-01-26T00:17:00;102440;;;2.2;70.2
69405;BME280;57084;52.046;5.632;2023-01-26T00:18:00;102430;;;2.2;70.3
69405;BME280;57084;52.046;5.632;2023-01-26T00:19:00;102430;;;2.2;70.3
69405;BME280;57084;52.046;5.632;2023-01-26T00:20:00;102440;;;2.2;70.3
69405;BME280;57084;52.046;5.632;2023-01-26T00:21:00;102440;;;2.2;70.3
69405;BME280;57084;52.046;5.632;2023-01-26T00:22:00;102430;;;2.2;70.3
69405;BME280;57084;52.046;5.632;2023-01-26T00:23:00;102430;;;2.2;70.3
69405;BME280;57084;52.046;5.632;2023-01-26T00:24:00;102430;;;2.2;70.3
69405;BME280;57084;52.046;5.632;2023-01-26T00:25:00;102430;;;2.2;70.3
69405;BME280;57084;52.046;5.632;2023-01-26T00:26:00;102430;;;2.2;70.3
69405;BME280;57084;52.046;5.632;2023-01-26T00:27:00;102430;;;2.2;70.3
69405;BME280;57084;52.046;5.632;2023-01-26T00:28:00;102430;;;2.2;70.4
69405;BME280;57084;52.046;5.632;2023-01-26T00:29:00;102430;;;2.2;70.4
69405;BME280;57084;52.046;5.632;2023-01-26T00:30:00;102430;;;2.2;70.4
69405;BME280;57084;52.046;5.632;2023-01-26T00:31:01;102430;;;2.2;70.4
69405;BME280;57084;52.046;5.632;2023-01-26T00:32:00;102420;;;2.2;70.4
69405;BME280;57084;52.046;5.632;2023-01-26T00:33:00;102420;;;2.2;70.4
69405;BME280;57084;52.046;5.632;2023-01-26T00:34:00;102420;;;2.2;70.4
69405;BME280;57084;52.046;5.632;2023-01-26T00:35:00;102420;;;2.2;70.4
69405;BME280;57084;52.046;5.632;2023-01-26T00:36:00;102420;;;2.2;70.3
69405;BME280;57084;52.046;5.632;2023-01-26T00:37:00;102420;;;2.2;70.3
69405;BME280;57084;52.046;5.632;2023-01-26T00:38:00;102420;;;2.2;70.4
69405;BME280;57084;52.046;5.632;2023-01-26T00:39:00;102420;;;2.2;70.4
69405;BME280;57084;52.046;5.632;2023-01-26T00:40:00;102420;;;2.2;70.3
69405;BME280;57084;52.046;5.632;2023-01-26T00:41:00;102420;;;2.2;70.3
69405;BME280;57084;52.046;5.632;2023-01-26T00:42:00;102420;;;2.2;70.4
69405;BME280;57084;52.046;5.632;2023-01-26T00:43:00;102420;;;2.2;70.4
69405;BME280;57084;52.046;5.632;2023-01-26T00:44:00;102420;;;2.2;70.4
69405;BME280;57084;52.046;5.632;2023-01-26T00:45:00;102420;;;2.2;70.4
69405;BME280;57084;52.046;5.632;2023-01-26T00:46:00;102420;;;2.2;70.3
69405;BME280;57084;52.046;5.632;2023-01-26T00:47:00;102420;;;2.2;70.3
69405;BME280;57084;52.046;5.632;2023-01-26T00:48:00;102420;;;2.2;70.4
69405;BME280;57084;52.046;5.632;2023-01-26T00:49:00;102420;;;2.2;70.4
69405;BME280;57084;52.046;5.632;2023-01-26T00:50:00;102420;;;2.2;70.4
69405;BME280;57084;52.046;5.632;2023-01-26T00:51:00;102420;;;2.2;70.4
69405;BME280;57084;52.046;5.632;2023-01-26T00:52:00;102420;;;2.2;70.4
69405;BME280;57084;52.046;5.632;2023-01-26T00:53:00;102420;;;2.2;70.4
69405;BME280;57084;52.046;5.632;2023-01-26T00:54:00;102420;;;2.2;70.4
69405;BME280;57084;52.046;5.632;2023-01-26T00:55:00;102420;;;2.2;70.4
69405;BME280;57084;52.046;5.632;2023-01-26T00:56:00;102420;;;2.2;70.4
69405;BME280;57084;52.046;5.632;2023-01-26T00:57:00;102420;;;2.2;70.4
69405;BME280;57084;52.046;5.632;2023-01-26T00:58:00;102420;;;2.2;70.4
69405;BME280;57084;52.046;5.632;2023-01-26T00:59:00;102420;;;2.2;70.4
69405;BME280;57084;52.046;5.632;2023-01-26T01:00:00;102420;;;2.2;70.4
69405;BME280;57084;52.046;5.632;2023-01-26T01:01:00;102420;;;2.2;70.4
69405;BME280;57084;52.046;5.632;2023-01-26T01:02:00;102420;;;2.3;70.4
69405;BME280;57084;52.046;5.632;2023-01-26T01:03:00;102420;;;2.3;70.4
69405;BME280;57084;52.046;5.632;2023-01-26T01:04:00;102420;;;2.3;70.4
69405;BME280;57084;52.046;5.632;2023-01-26T01:05:00;102420;;;2.3;70.4
69405;BME280;57084;52.046;5.632;2023-01-26T01:06:00;102420;;;2.3;70.4
69405;BME280;57084;52.046;5.632;2023-01-26T01:07:00;102420;;;2.3;70.4
69405;BME280;57084;52.046;5.632;2023-01-26T01:08:00;102420;;;2.3;70.5
69405;BME280;57084;52.046;5.632;2023-01-26T01:09:00;102420;;;2.3;70.5
69405;BME280;57084;52.046;5.632;2023-01-26T01:10:00;102420;;;2.3;70.4
69405;BME280;57084;52.046;5.632;2023-01-26T01:11:02;102420;;;2.3;70.4
69405;BME280;57084;52.046;5.632;2023-01-26T01:12:00;102420;;;2.3;70.5
69405;BME280;57084;52.046;5.632;2023-01-26T01:13:00;102420;;;2.3;70.5
69405;BME280;57084;52.046;5.632;2023-01-26T01:14:00;102410;;;2.3;70.5
69405;BME280;57084;52.046;5.632;2023-01-26T01:15:00;102410;;;2.3;70.5
69405;BME280;57084;52.046;5.632;2023-01-26T01:16:03;102420;;;2.3;70.4
69405;BME280;57084;52.046;5.632;2023-01-26T01:17:00;102420;;;2.3;70.4
69405;BME280;57084;52.046;5.632;2023-01-26T01:18:00;102410;;;2.3;70.5
69405;BME280;57084;52.046;5.632;2023-01-26T01:19:00;102410;;;2.3;70.5
69405;BME280;57084;52.046;5.632;2023-01-26T01:20:00;102410;;;2.3;70.5
69405;BME280;57084;52.046;5.632;2023-01-26T01:21:05;102410;;;2.3;70.5
69405;BME280;57084;52.046;5.632;2023-01-26T01:22:00;102410;;;2.3;70.5
69405;BME280;57084;52.046;5.632;2023-01-26T01:23:00;102410;;;2.3;70.5
69405;BME280;57084;52.046;5.632;2023-01-26T01:24:00;102410;;;2.3;70.5
69405;BME280;57084;52.046;5.632;2023-01-26T01:25:00;102410;;;2.3;70.5
69405;BME280;57084;52.046;5.632;2023-01-26T01:26:00;102420;;;2.3;70.4
69405;BME280;57084;52.046;5.632;2023-01-26T01:27:00;102420;;;2.3;70.4
69405;BME280;57084;52.046;5.632;2023-01-26T01:28:00;102420;;;2.3;70.5
69405;BME280;57084;52.046;5.632;2023-01-26T01:29:00;102420;;;2.3;70.5
69405;BME280;57084;52.046;5.632;2023-01-26T01:30:00;102410;;;2.3;70.5
69405;BME280;57084;52.046;5.632;2023-01-26T01:31:02;102410;;;2.3;70.5
69405;BME280;57084;52.046;5.632;2023-01-26T01:32:00;102410;;;2.3;70.5
69405;BME280;57084;52.046;5.632;2023-01-26T01:33:00;102410;;;2.3;70.5
69405;BME280;57084;52.046;5.632;2023-01-26T01:34:00;102410;;;2.3;70.6
69405;BME280;57084;52.046;5.632;2023-01-26T01:35:00;102410;;;2.3;70.6
69405;BME280;57084;52.046;5.632;2023-01-26T01:36:00;102410;;;2.3;70.5
69405;BME280;57084;52.046;5.632;2023-01-26T01:37:00;102410;;;2.3;70.5
69405;BME280;57084;52.046;5.632;2023-01-26T01:38:00;102400;;;2.3;70.6
69405;BME280;57084;52.046;5.632;2023-01-26T01:39:00;102400;;;2.3;70.6
69405;BME280;57084;52.046;5.632;2023-01-26T01:40:00;102400;;;2.3;70.6
69405;BME280;57084;52.046;5.632;2023-01-26T01:41:00;102400;;;2.3;70.6
69405;BME280;57084;52.046;5.632;2023-01-26T01:42:00;102400;;;2.3;70.6
69405;BME280;57084;52.046;5.632;2023-01-26T01:43:00;102400;;;2.3;70.6
69405;BME280;57084;52.046;5.632;2023-01-26T01:44:16;102400;;;2.3;70.6
69405;BME280;57084;52.046;5.632;2023-01-26T01:46:00;102400;;;2.3;70.6
69405;BME280;57084;52.046;5.632;2023-01-26T01:47:01;102400;;;2.3;70.6
69405;BME280;57084;52.046;5.632;2023-01-26T01:48:00;102400;;;2.3;70.6
69405;BME280;57084;52.046;5.632;2023-01-26T01:49:01;102400;;;2.3;70.6
69405;BME280;57084;52.046;5.632;2023-01-26T01:50:00;102400;;;2.3;70.6
69405;BME280;57084;52.046;5.632;2023-01-26T01:51:02;102400;;;2.3;70.6
69405;BME280;57084;52.046;5.632;2023-01-26T01:52:01;102400;;;2.3;70.6
69405;BME280;57084;52.046;5.632;2023-01-26T01:53:00;102400;;;2.3;70.6
69405;BME280;57084;52.046;5.632;2023-01-26T01:54:01;102390;;;2.3;70.7
69405;BME280;57084;52.046;5.632;2023-01-26T01:55:00;102390;;;2.3;70.7
69405;BME280;57084;52.046;5.632;2023-01-26T01:56:01;102390;;;2.3;70.6
69405;BME280;57084;52.046;5.632;2023-01-26T01:57:01;102390;;;2.3;70.6
69405;BME280;57084;52.046;5.632;2023-01-26T01:58:00;102380;;;2.3;70.7
69405;BME280;57084;52.046;5.632;2023-01-26T01:59:00;102380;;;2.3;70.7
69405;BME280;57084;52.046;5.632;2023-01-26T02:00:01;102380;;;2.3;70.7
69405;BME280;57084;52.046;5.632;2023-01-26T02:01:00;102380;;;2.3;70.7
69405;BME280;57084;52.046;5.632;2023-01-26T02:02:00;102370;;;2.3;70.7
69405;BME280;57084;52.046;5.632;2023-01-26T02:03:01;102370;;;2.3;70.7
69405;BME280;57084;52.046;5.632;2023-01-26T02:04:01;102370;;;2.3;70.7
69405;BME280;57084;52.046;5.632;2023-01-26T02:05:03;102370;;;2.3;70.7
69405;BME280;57084;52.046;5.632;2023-01-26T02:06:00;102380;;;2.3;70.7
69405;BME280;57084;52.046;5.632;2023-01-26T02:07:00;102380;;;2.3;70.7
69405;BME280;57084;52.046;5.632;2023-01-26T02:08:00;102380;;;2.3;70.7
69405;BME280;57084;52.046;5.632;2023-01-26T02:09:00;102380;;;2.3;70.7
69405;BME280;57084;52.046;5.632;2023-01-26T02:10:00;102380;;;2.3;70.7
69405;BME280;57084;52.046;5.632;2023-01-26T02:11:01;102380;;;2.3;70.7
69405;BME280;57084;52.046;5.632;2023-01-26T02:12:00;102370;;;2.3;70.7
69405;BME280;57084;52.046;5.632;2023-01-26T02:13:00;102370;;;2.3;70.7
69405;BME280;57084;52.046;5.632;2023-01-26T02:14:01;102370;;;2.3;70.8
69405;BME280;57084;52.046;5.632;2023-01-26T02:15:00;102370;;;2.3;70.8
69405;BME280;57084;52.046;5.632;2023-01-26T02:16:00;102370;;;2.3;70.8
69405;BME280;57084;52.046;5.632;2023-01-26T02:17:00;102370;;;2.3;70.8
69405;BME280;57084;52.046;5.632;2023-01-26T02:18:01;102370;;;2.3;70.8
69405;BME280;57084;52.046;5.632;2023-01-26T02:19:00;102370;;;2.3;70.8
69405;BME280;57084;52.046;5.632;2023-01-26T02:20:02;102370;;;2.3;70.8
69405;BME280;57084;52.046;5.632;2023-01-26T02:21:00;102370;;;2.3;70.8
69405;BME280;57084;52.046;5.632;2023-01-26T02:22:01;102370;;;2.3;70.8
69405;BME280;57084;52.046;5.632;2023-01-26T02:23:01;102370;;;2.3;70.8
69405;BME280;57084;52.046;5.632;2023-01-26T02:24:03;102380;;;2.3;70.9
69405;BME280;57084;52.046;5.632;2023-01-26T02:25:01;102380;;;2.3;70.9
69405;BME280;57084;52.046;5.632;2023-01-26T02:26:02;102380;;;2.3;70.9
69405;BME280;57084;52.046;5.632;2023-01-26T02:27:00;102380;;;2.3;70.9
69405;BME280;57084;52.046;5.632;2023-01-26T02:28:00;102380;;;2.3;70.9
69405;BME280;57084;52.046;5.632;2023-01-26T02:29:00;102380;;;2.3;70.9
69405;BME280;57084;52.046;5.632;2023-01-26T02:30:00;102380;;;2.3;70.9
69405;BME280;57084;52.046;5.632;2023-01-26T02:31:00;102380;;;2.3;70.9
69405;BME280;57084;52.046;5.632;2023-01-26T02:32:00;102380;;;2.3;70.9
69405;BME280;57084;52.046;5.632;2023-01-26T02:33:00;102380;;;2.3;70.9
69405;BME280;57084;52.046;5.632;2023-01-26T02:34:00;102380;;;2.3;70.9
69405;BME280;57084;52.046;5.632;2023-01-26T02:35:00;102380;;;2.3;70.9
69405;BME280;57084;52.046;5.632;2023-01-26T02:36:00;102380;;;2.3;70.9
69405;BME280;57084;52.046;5.632;2023-01-26T02:37:00;102380;;;2.3;70.9
69405;BME280;57084;52.046;5.632;2023-01-26T02:38:00;102370;;;2.3;70.9
69405;BME280;57084;52.046;5.632;2023-01-26T02:39:08;102370;;;2.3;70.9
69405;BME280;57084;52.046;5.632;2023-01-26T02:40:00;102380;;;2.3;70.9
69405;BME280;57084;52.046;5.632;2023-01-26T02:41:01;102380;;;2.3;70.9
69405;BME280;57084;52.046;5.632;2023-01-26T02:42:00;102380;;;2.3;70.9
69405;BME280;57084;52.046;5.632;2023-01-26T02:43:00;102380;;;2.3;70.9
69405;BME280;57084;52.046;5.632;2023-01-26T02:44:00;102380;;;2.3;70.9
69405;BME280;57084;52.046;5.632;2023-01-26T02:45:00;102380;;;2.3;70.9
69405;BME280;57084;52.046;5.632;2023-01-26T02:46:00;102370;;;2.3;70.9
69405;BME280;57084;52.046;5.632;2023-01-26T02:47:00;102370;;;2.3;70.9
69405;BME280;57084;52.046;5.632;2023-01-26T02:48:00;102370;;;2.3;70.9
69405;BME280;57084;52.046;5.632;2023-01-26T02:49:00;102370;;;2.3;70.9
69405;BME280;57084;52.046;5.632;2023-01-26T02:50:00;102370;;;2.3;70.9
69405;BME280;57084;52.046;5.632;2023-01-26T02:51:00;102370;;;2.3;70.9
69405;BME280;57084;52.046;5.632;2023-01-26T02:52:00;102380;;;2.3;70.9
69405;BME280;57084;52.046;5.632;2023-01-26T02:53:00;102380;;;2.3;70.9
69405;BME280;57084;52.046;5.632;2023-01-26T02:54:00;102380;;;2.3;70.9
69405;BME280;57084;52.046;5.632;2023-01-26T02:55:00;102380;;;2.3;70.9
69405;BME280;57084;52.046;5.632;2023-01-26T02:56:00;102380;;;2.3;70.9
69405;BME280;57084;52.046;5.632;2023-01-26T02:57:00;102380;;;2.3;70.9
69405;BME280;57084;52.046;5.632;2023-01-26T02:58:01;102380;;;2.3;70.9
69405;BME280;57084;52.046;5.632;2023-01-26T02:59:00;102380;;;2.3;70.9
69405;BME280;57084;52.046;5.632;2023-01-26T03:00:00;102380;;;2.3;71.0
69405;BME280;57084;52.046;5.632;2023-01-26T03:01:00;102380;;;2.3;71.0
69405;BME280;57084;52.046;5.632;2023-01-26T03:02:00;102380;;;2.3;70.9
69405;BME280;57084;52.046;5.632;2023-01-26T03:03:00;102380;;;2.3;70.9
69405;BME280;57084;52.046;5.632;2023-01-26T03:04:00;102380;;;2.3;71.0
69405;BME280;57084;52.046;5.632;2023-01-26T03:05:00;102380;;;2.3;71.0
69405;BME280;57084;52.046;5.632;2023-01-26T03:06:00;102380;;;2.3;71.0
69405;BME280;57084;52.046;5.632;2023-01-26T03:07:00;102380;;;2.3;71.0
69405;BME280;57084;52.046;5.632;2023-01-26T03:08:00;102380;;;2.4;71.0
69405;BME280;57084;52.046;5.632;2023-01-26T03:09:00;102380;;;2.4;71.0
69405;BME280;57084;52.046;5.632;2023-01-26T03:10:00;102380;;;2.4;71.0
69405;BME280;57084;52.046;5.632;2023-01-26T03:11:00;102380;;;2.4;71.0
69405;BME280;57084;52.046;5.632;2023-01-26T03:12:00;102380;;;2.4;71.0
69405;BME280;57084;52.046;5.632;2023-01-26T03:13:00;102380;;;2.4;71.0
69405;BME280;57084;52.046;5.632;2023-01-26T03:14:00;102380;;;2.4;71.0
69405;BME280;57084;52.046;5.632;2023-01-26T03:15:00;102380;;;2.4;71.0
69405;BME280;57084;52.046;5.632;2023-01-26T03:16:00;102380;;;2.4;71.0
69405;BME280;57084;52.046;5.632;2023-01-26T03:17:00;102380;;;2.4;71.0
69405;BME280;57084;52.046;5.632;2023-01-26T03:18:00;102380;;;2.4;71.0
69405;BME280;57084;52.046;5.632;2023-01-26T03:19:00;102380;;;2.4;71.0
69405;BME280;57084;52.046;5.632;2023-01-26T03:20:00;102390;;;2.4;71.0
69405;BME280;57084;52.046;5.632;2023-01-26T03:21:00;102390;;;2.4;71.0
69405;BME280;57084;52.046;5.632;2023-01-26T03:22:00;102390;;;2.4;71.0
69405;BME280;57084;52.046;5.632;2023-01-26T03:23:00;102390;;;2.4;71.0
69405;BME280;57084;52.046;5.632;2023-01-26T03:24:00;102390;;;2.4;71.0
69405;BME280;57084;52.046;5.632;2023-01-26T03:25:00;102390;;;2.4;71.0
69405;BME280;57084;52.046;5.632;2023-01-26T03:26:00;102380;;;2.4;71.0
69405;BME280;57084;52.046;5.632;2023-01-26T03:27:00;102380;;;2.4;71.0
69405;BME280;57084;52.046;5.632;2023-01-26T03:28:00;102390;;;2.4;71.1
69405;BME280;57084;52.046;5.632;2023-01-26T03:29:00;102390;;;2.4;71.1
69405;BME280;57084;52.046;5.632;2023-01-26T03:30:00;102390;;;2.4;71.1
69405;BME280;57084;52.046;5.632;2023-01-26T03:31:00;102390;;;2.4;71.1
69405;BME280;57084;52.046;5.632;2023-01-26T03:32:00;102390;;;2.4;71.0
69405;BME280;57084;52.046;5.632;2023-01-26T03:33:00;102390;;;2.4;71.0
69405;BME280;57084;52.046;5.632;2023-01-26T03:34:00;102390;;;2.4;71.1
69405;BME280;57084;52.046;5.632;2023-01-26T03:35:00;102390;;;2.4;71.1
69405;BME280;57084;52.046;5.632;2023-01-26T03:36:00;102380;;;2.4;71.1
69405;BME280;57084;52.046;5.632;2023-01-26T03:37:00;102380;;;2.4;71.1
69405;BME280;57084;52.046;5.632;2023-01-26T03:38:00;102380;;;2.4;71.1
69405;BME280;57084;52.046;5.632;2023-01-26T03:39:00;102380;;;2.4;71.1
69405;BME280;57084;52.046;5.632;2023-01-26T03:40:00;102380;;;2.4;71.1
69405;BME280;57084;52.046;5.632;2023-01-26T03:41:00;102380;;;2.4;71.1
69405;BME280;57084;52.046;5.632;2023-01-26T03:42:00;102380;;;2.4;71.1
69405;BME280;57084;52.046;5.632;2023-01-26T03:43:05;102380;;;2.4;71.1
69405;BME280;57084;52.046;5.632;2023-01-26T03:44:00;102370;;;2.4;71.1
69405;BME280;57084;52.046;5.632;2023-01-26T03:45:00;102370;;;2.4;71.1
69405;BME280;57084;52.046;5.632;2023-01-26T03:46:01;102380;;;2.4;71.1
69405;BME280;57084;52.046;5.632;2023-01-26T03:47:00;102380;;;2.4;71.1
69405;BME280;57084;52.046;5.632;2023-01-26T03:48:04;102370;;;2.4;71.1
69405;BME280;57084;52.046;5.632;2023-01-26T03:49:00;102370;;;2.4;71.1
69405;BME280;57084;52.046;5.632;2023-01-26T03:50:00;102370;;;2.4;71.1
69405;BME280;57084;52.046;5.632;2023-01-26T03:51:00;102370;;;2.4;71.1
69405;BME280;57084;52.046;5.632;2023-01-26T03:52:00;102380;;;2.4;71.1
69405;BME280;57084;52.046;5.632;2023-01-26T03:53:00;102380;;;2.4;71.1
69405;BME280;57084;52.046;5.632;2023-01-26T03:54:00;102370;;;2.4;71.2
69405;BME280;57084;52.046;5.632;2023-01-26T03:55:00;102370;;;2.4;71.2
69405;BME280;57084;52.046;5.632;2023-01-26T03:56:00;102370;;;2.4;71.2
69405;BME280;57084;52.046;5.632;2023-01-26T03:57:00;102370;;;2.4;71.2
69405;BME280;57084;52.046;5.632;2023-01-26T03:58:00;102380;;;2.4;71.2
69405;BME280;57084;52.046;5.632;2023-01-26T03:59:00;102380;;;2.4;71.2
69405;BME280;57084;52.046;5.632;2023-01-26T04:00:00;102370;;;2.4;71.2
69405;BME280;57084;52.046;5.632;2023-01-26T04:01:00;102370;;;2.4;71.2
69405;BME280;57084;52.046;5.632;2023-01-26T04:02:00;102370;;;2.4;71.2
69405;BME280;57084;52.046;5.632;2023-01-26T04:03:00;102370;;;2.4;71.2
69405;BME280;57084;52.046;5.632;2023-01-26T04:04:00;102370;;;2.4;71.3
69405;BME280;57084;52.046;5.632;2023-01-26T04:05:00;102370;;;2.4;71.3
69405;BME280;57084;52.046;5.632;2023-01-26T04:06:00;102370;;;2.4;71.3
69405;BME280;57084;52.046;5.632;2023-01-26T04:07:00;102370;;;2.4;71.3
69405;BME280;57084;52.046;5.632;2023-01-26T04:08:00;102380;;;2.4;71.2
69405;BME280;57084;52.046;5.632;2023-01-26T04:09:00;102380;;;2.4;71.2
69405;BME280;57084;52.046;5.632;2023-01-26T04:10:00;102370;;;2.4;71.3
69405;BME280;57084;52.046;5.632;2023-01-26T04:11:00;102370;;;2.4;71.3
69405;BME280;57084;52.046;5.632;2023-01-26T04:12:00;102380;;;2.4;71.3
69405;BME280;57084;52.046;5.632;2023-01-26T04:13:00;102380;;;2.4;71.3
69405;BME280;57084;52.046;5.632;2023-01-26T04:14:00;102380;;;2.4;71.3
69405;BME280;57084;52.046;5.632;2023-01-26T04:15:00;102380;;;2.4;71.3
69405;BME280;57084;52.046;5.632;2023-01-26T04:16:00;102380;;;2.4;71.3
69405;BME280;57084;52.046;5.632;2023-01-26T04:17:00;102380;;;2.4;71.3
69405;BME280;57084;52.046;5.632;2023-01-26T04:18:05;102380;;;2.4;71.2
69405;BME280;57084;52.046;5.632;2023-01-26T04:19:00;102380;;;2.4;71.2
69405;BME280;57084;52.046;5.632;2023-01-26T04:20:00;102370;;;2.4;71.3
69405;BME280;57084;52.046;5.632;2023-01-26T04:21:00;102370;;;2.4;71.3
69405;BME280;57084;52.046;5.632;2023-01-26T04:22:00;102370;;;2.4;71.3
69405;BME280;57084;52.046;5.632;2023-01-26T04:23:00;102370;;;2.4;71.3
69405;BME280;57084;52.046;5.632;2023-01-26T04:24:00;102370;;;2.4;71.3
69405;BME280;57084;52.046;5.632;2023-01-26T04:25:00;102370;;;2.4;71.3
69405;BME280;57084;52.046;5.632;2023-01-26T04:26:00;102370;;;2.5;71.3
69405;BME280;57084;52.046;5.632;2023-01-26T04:27:00;102370;;;2.5;71.3
69405;BME280;57084;52.046;5.632;2023-01-26T04:28:00;102370;;;2.5;71.2
69405;BME280;57084;52.046;5.632;2023-01-26T04:29:00;102370;;;2.5;71.2
69405;BME280;57084;52.046;5.632;2023-01-26T04:30:00;102370;;;2.5;71.3
69405;BME280;57084;52.046;5.632;2023-01-26T04:31:00;102370;;;2.5;71.3
69405;BME280;57084;52.046;5.632;2023-01-26T04:32:00;102370;;;2.5;71.3
69405;BME280;57084;52.046;5.632;2023-01-26T04:33:00;102370;;;2.5;71.3
69405;BME280;57084;52.046;5.632;2023-01-26T04:34:00;102370;;;2.5;71.3
69405;BME280;57084;52.046;5.632;2023-01-26T04:35:00;102370;;;2.5;71.3
69405;BME280;57084;52.046;5.632;2023-01-26T04:36:02;102380;;;2.5;71.3
69405;BME280;57084;52.046;5.632;2023-01-26T04:37:00;102380;;;2.5;71.3
69405;BME280;57084;52.046;5.632;2023-01-26T04:38:00;102370;;;2.5;71.3
69405;BME280;57084;52.046;5.632;2023-01-26T04:39:00;102370;;;2.5;71.3
69405;BME280;57084;52.046;5.632;2023-01-26T04:40:00;102370;;;2.5;71.4
69405;BME280;57084;52.046;5.632;2023-01-26T04:41:00;102370;;;2.5;71.4
69405;BME280;57084;52.046;5.632;2023-01-26T04:42:00;102370;;;2.5;71.3
69405;BME280;57084;52.046;5.632;2023-01-26T04:43:00;102370;;;2.5;71.3
69405;BME280;57084;52.046;5.632;2023-01-26T04:44:00;102370;;;2.5;71.4
69405;BME280;57084;52.046;5.632;2023-01-26T04:45:00;102370;;;2.5;71.4
69405;BME280;57084;52.046;5.632;2023-01-26T04:46:00;102370;;;2.5;71.4
69405;BME280;57084;52.046;5.632;2023-01-26T04:47:00;102370;;;2.5;71.4
69405;BME280;57084;52.046;5.632;2023-01-26T04:48:00;102370;;;2.5;71.3
69405;BME280;57084;52.046;5.632;2023-01-26T04:49:00;102370;;;2.5;71.3
69405;BME280;57084;52.046;5.632;2023-01-26T04:50:00;102370;;;2.5;71.4
69405;BME280;57084;52.046;5.632;2023-01-26T04:51:01;102370;;;2.5;71.4
69405;BME280;57084;52.046;5.632;2023-01-26T04:52:00;102370;;;2.5;71.4
69405;BME280;57084;52.046;5.632;2023-01-26T04:53:00;102370;;;2.5;71.4
69405;BME280;57084;52.046;5.632;2023-01-26T04:54:00;102370;;;2.5;71.4
69405;BME280;57084;52.046;5.632;2023-01-26T04:55:00;102370;;;2.5;71.4
69405;BME280;57084;52.046;5.632;2023-01-26T04:56:00;102370;;;2.5;71.4
69405;BME280;57084;52.046;5.632;2023-01-26T04:57:00;102370;;;2.5;71.4
69405;BME280;57084;52.046;5.632;2023-01-26T04:58:00;102370;;;2.5;71.4
69405;BME280;57084;52.046;5.632;2023-01-26T04:59:01;102370;;;2.5;71.4
69405;BME280;57084;52.046;5.632;2023-01-26T05:00:00;102370;;;2.5;71.5
69405;BME280;57084;52.046;5.632;2023-01-26T05:01:00;102370;;;2.5;71.5
69405;BME280;57084;52.046;5.632;2023-01-26T05:02:00;102360;;;2.5;71.4
69405;BME280;57084;52.046;5.632;2023-01-26T05:03:00;102360;;;2.5;71.4
69405;BME280;57084;52.046;5.632;2023-01-26T05:04:00;102370;;;2.5;71.5
69405;BME280;57084;52.046;5.632;2023-01-26T05:05:00;102370;;;2.5;71.5
69405;BME280;57084;52.046;5.632;2023-01-26T05:06:00;102370;;;2.5;71.5
69405;BME280;57084;52.046;5.632;2023-01-26T05:07:00;102370;;;2.5;71.5
69405;BME280;57084;52.046;5.632;2023-01-26T05:08:00;102360;;;2.5;71.5
69405;BME280;57084;52.046;5.632;2023-01-26T05:09:00;102360;;;2.5;71.5
69405;BME280;57084;52.046;5.632;2023-01-26T05:10:00;102360;;;2.5;71.5
69405;BME280;57084;52.046;5.632;2023-01-26T05:11:00;102360;;;2.5;71.5
69405;BME280;57084;52.046;5.632;2023-01-26T05:12:00;102360;;;2.5;71.5
69405;BME280;57084;52.046;5.632;2023-01-26T05:13:00;102360;;;2.5;71.5
69405;BME280;57084;52.046;5.632;2023-01-26T05:14:00;102360;;;2.5;71.5
69405;BME280;57084;52.046;5.632;2023-01-26T05:15:00;102360;;;2.5;71.5
69405;BME280;57084;52.046;5.632;2023-01-26T05:16:00;102360;;;2.5;71.5
69405;BME280;57084;52.046;5.632;2023-01-26T05:17:00;102360;;;2.5;71.5
69405;BME280;57084;52.046;5.632;2023-01-26T05:18:00;102350;;;2.5;71.5
69405;BME280;57084;52.046;5.632;2023-01-26T05:19:00;102350;;;2.5;71.5
69405;BME280;57084;52.046;5.632;2023-01-26T05:20:00;102350;;;2.6;71.6
69405;BME280;57084;52.046;5.632;2023-01-26T05:21:00;102350;;;2.6;71.6
69405;BME280;57084;52.046;5.632;2023-01-26T05:22:00;102350;;;2.6;71.5
69405;BME280;57084;52.046;5.632;2023-01-26T05:23:00;102350;;;2.6;71.5
69405;BME280;57084;52.046;5.632;2023-01-26T05:24:00;102350;;;2.6;71.5
69405;BME280;57084;52.046;5.632;2023-01-26T05:25:00;102350;;;2.6;71.5
69405;BME280;57084;52.046;5.632;2023-01-26T05:26:00;102350;;;2.6;71.6
69405;BME280;57084;52.046;5.632;2023-01-26T05:27:00;102350;;;2.6;71.6
69405;BME280;57084;52.046;5.632;2023-01-26T05:28:00;102350;;;2.6;71.5
69405;BME280;57084;52.046;5.632;2023-01-26T05:29:00;102350;;;2.6;71.5
69405;BME280;57084;52.046;5.632;2023-01-26T05:30:00;102350;;;2.6;71.6
69405;BME280;57084;52.046;5.632;2023-01-26T05:31:00;102350;;;2.6;71.6
69405;BME280;57084;52.046;5.632;2023-01-26T05:32:00;102350;;;2.6;71.6
69405;BME280;57084;52.046;5.632;2023-01-26T05:33:00;102350;;;2.6;71.6
69405;BME280;57084;52.046;5.632;2023-01-26T05:34:00;102350;;;2.6;71.6
69405;BME280;57084;52.046;5.632;2023-01-26T05:35:00;102350;;;2.6;71.6
69405;BME280;57084;52.046;5.632;2023-01-26T05:36:02;102350;;;2.6;71.6
69405;BME280;57084;52.046;5.632;2023-01-26T05:37:00;102350;;;2.6;71.6
69405;BME280;57084;52.046;5.632;2023-01-26T05:38:00;102350;;;2.6;71.6
69405;BME280;57084;52.046;5.632;2023-01-26T05:39:00;102350;;;2.6;71.6
69405;BME280;57084;52.046;5.632;2023-01-26T05:40:00;102350;;;2.6;71.6
69405;BME280;57084;52.046;5.632;2023-01-26T05:41:00;102350;;;2.6;71.6